Time;durP1;ratioP1;P1;durP2;ratioP2;P2;SDS_P1;SDS_P2;PMS_P1;PMS_P2;Temp;Humidity;BMP_temperature;BMP_pressure;BME280_temperature;BME280_humidity;BME280_pressure;Samples;Min_cycle;Max_cycle;Signal;HPM_P1;HPM_P2
2020/12/23 00:01:32;;;;;;;;;0.00;0.00;;;;;;;;4942382;28;8842;-88
2020/12/23 00:03:59;;;;;;;;;0.00;0.00;;;;;;;;4953760;28;8885;-87
2020/12/23 00:06:34;;;;;;;;;0.00;0.00;;;;;;;;4955902;28;8893;-90
2020/12/23 00:09:02;;;;;;;;;0.00;0.00;;;;;;;;4946976;28;8912;-90
2020/12/23 00:11:28;;;;;;;;;0.00;0.00;;;;;;;;4946440;28;8863;-91
2020/12/23 00:13:55;;;;;;;;;0.00;0.00;;;;;;;;4948139;28;8960;-85
2020/12/23 00:16:22;;;;;;;;;0.00;0.00;;;;;;;;4953454;28;8893;-85
2020/12/23 00:18:49;;;;;;;;;0.00;0.00;;;;;;;;4945761;28;8940;-87
2020/12/23 00:21:16;;;;;;;;;0.00;0.00;;;;;;;;4927977;28;8913;-88
2020/12/23 00:23:45;;;;;;;;;0.00;0.00;;;;;;;;4950999;28;8919;-90
2020/12/23 00:26:12;;;;;;;;;0.00;0.00;;;;;;;;4947598;28;8902;-88
2020/12/23 00:28:41;;;;;;;;;0.00;0.00;;;;;;;;4954486;28;9086;-91
2020/12/23 00:31:08;;;;;;;;;0.00;0.00;;;;;;;;4958112;28;8872;-85
2020/12/23 00:33:34;;;;;;;;;0.00;0.00;;;;;;;;4951868;28;9653;-90
2020/12/23 00:36:01;;;;;;;;;0.50;0.50;;;;;;;;4938017;28;8872;-88
2020/12/23 00:38:28;;;;;;;;;0.00;0.00;;;;;;;;4954797;28;8879;-90
2020/12/23 00:40:56;;;;;;;;;0.75;0.75;;;;;;;;4950060;28;8900;-89
2020/12/23 00:43:23;;;;;;;;;0.75;0.75;;;;;;;;4948599;28;9699;-89
2020/12/23 00:45:50;;;;;;;;;0.25;0.25;;;;;;;;4932323;28;9017;-87
2020/12/23 00:48:17;;;;;;;;;1.00;1.00;;;;;;;;4947350;28;8973;-91
2020/12/23 00:50:44;;;;;;;;;1.50;1.50;;;;;;;;4951292;28;8881;-92
2020/12/23 00:53:11;;;;;;;;;2.25;1.75;;;;;;;;4953293;28;8900;-90
2020/12/23 00:55:38;;;;;;;;;1.00;1.00;;;;;;;;4969076;28;8923;-89
2020/12/23 00:58:06;;;;;;;;;1.00;1.00;;;;;;;;4957515;28;8917;-86
2020/12/23 01:00:32;;;;;;;;;1.25;1.00;;;;;;;;4953303;28;8797;-90
2020/12/23 01:02:59;;;;;;;;;1.00;1.00;;;;;;;;4947559;28;8855;-90
2020/12/23 01:05:26;;;;;;;;;0.75;0.75;;;;;;;;4951710;28;8889;-86
2020/12/23 01:07:53;;;;;;;;;0.50;0.50;;;;;;;;4935283;28;9650;-89
2020/12/23 01:10:19;;;;;;;;;0.75;0.75;;;;;;;;4955479;28;8869;-87
2020/12/23 01:12:46;;;;;;;;;0.75;0.75;;;;;;;;4953918;28;8897;-87
2020/12/23 01:15:14;;;;;;;;;0.25;0.25;;;;;;;;4950341;28;8870;-86
2020/12/23 01:17:41;;;;;;;;;1.50;1.00;;;;;;;;4954922;28;9644;-90
2020/12/23 01:20:08;;;;;;;;;0.25;0.25;;;;;;;;4952990;28;8920;-89
2020/12/23 01:22:35;;;;;;;;;1.00;1.00;;;;;;;;4951837;28;8869;-87
2020/12/23 01:25:02;;;;;;;;;0.50;0.50;;;;;;;;4954313;28;8881;-89
2020/12/23 01:27:29;;;;;;;;;1.00;1.00;;;;;;;;4958848;28;9761;-91
2020/12/23 01:29:56;;;;;;;;;1.50;0.00;;;;;;;;4955484;28;8875;-86
2020/12/23 01:32:23;;;;;;;;;0.75;0.75;;;;;;;;4960051;28;8839;-87
2020/12/23 01:34:50;;;;;;;;;0.00;0.00;;;;;;;;4952208;28;8869;-89
2020/12/23 01:37:17;;;;;;;;;0.00;0.00;;;;;;;;4953291;28;8886;-87
2020/12/23 01:39:44;;;;;;;;;0.00;0.00;;;;;;;;4949725;28;8877;-87
2020/12/23 01:42:11;;;;;;;;;0.00;0.00;;;;;;;;4953893;28;8895;-87
2020/12/23 01:44:38;;;;;;;;;0.50;0.50;;;;;;;;4950605;28;8865;-84
2020/12/23 01:47:06;;;;;;;;;1.00;1.00;;;;;;;;4954629;28;8869;-86
2020/12/23 01:49:35;;;;;;;;;0.00;0.00;;;;;;;;4932547;28;8951;-85
2020/12/23 01:52:02;;;;;;;;;0.50;0.50;;;;;;;;4936199;28;8851;-83
2020/12/23 01:54:30;;;;;;;;;0.00;0.00;;;;;;;;4956129;28;8882;-84
2020/12/23 01:56:58;;;;;;;;;0.00;0.00;;;;;;;;4954395;28;8859;-85
2020/12/23 01:59:25;;;;;;;;;0.00;0.00;;;;;;;;4949805;28;8984;-85
2020/12/23 02:02:02;;;;;;;;;0.00;0.00;;;;;;;;4958952;28;8968;-87
2020/12/23 02:04:32;;;;;;;;;0.00;0.00;;;;;;;;4947564;28;8924;-84
2020/12/23 02:07:00;;;;;;;;;2.00;0.00;;;;;;;;4949533;28;8874;-86
2020/12/23 02:09:28;;;;;;;;;0.00;0.00;;;;;;;;4954435;28;8910;-85
2020/12/23 02:11:55;;;;;;;;;0.00;0.00;;;;;;;;4957277;28;8905;-84
2020/12/23 02:14:22;;;;;;;;;1.00;1.00;;;;;;;;4955941;28;9586;-88
2020/12/23 02:16:51;;;;;;;;;0.00;0.00;;;;;;;;4957800;28;8864;-85
2020/12/23 02:19:18;;;;;;;;;2.00;2.00;;;;;;;;4967624;28;8883;-86
2020/12/23 02:21:45;;;;;;;;;1.00;1.00;;;;;;;;4965856;28;8848;-87
2020/12/23 02:24:13;;;;;;;;;1.00;1.00;;;;;;;;4968051;28;8867;-90
2020/12/23 02:26:39;;;;;;;;;3.25;2.00;;;;;;;;4967859;28;9233;-88
2020/12/23 02:29:06;;;;;;;;;1.75;1.75;;;;;;;;4965772;28;8891;-88
2020/12/23 02:31:33;;;;;;;;;0.75;0.75;;;;;;;;4950669;28;8846;-90
2020/12/23 02:34:00;;;;;;;;;0.25;0.25;;;;;;;;4966872;28;8906;-84
2020/12/23 02:36:27;;;;;;;;;0.50;0.00;;;;;;;;4960227;28;8883;-82
2020/12/23 02:38:54;;;;;;;;;0.00;0.00;;;;;;;;4964833;28;8885;-86
2020/12/23 02:41:21;;;;;;;;;0.00;0.00;;;;;;;;4969202;28;8873;-85
2020/12/23 02:43:48;;;;;;;;;0.25;0.00;;;;;;;;4966659;28;8847;-89
2020/12/23 02:46:15;;;;;;;;;0.00;0.00;;;;;;;;4966387;28;8888;-87
2020/12/23 02:48:42;;;;;;;;;2.00;0.00;;;;;;;;4949418;28;8883;-87
2020/12/23 02:51:09;;;;;;;;;0.00;0.00;;;;;;;;4965497;28;8910;-87
2020/12/23 02:53:35;;;;;;;;;1.50;1.00;;;;;;;;4967456;28;8928;-84
2020/12/23 02:56:03;;;;;;;;;0.00;0.00;;;;;;;;4965330;28;8859;-87
2020/12/23 02:58:31;;;;;;;;;0.00;0.00;;;;;;;;4949344;28;8875;-86
2020/12/23 03:00:58;;;;;;;;;1.00;1.00;;;;;;;;4964879;28;8910;-84
2020/12/23 03:03:25;;;;;;;;;0.00;0.00;;;;;;;;4975974;28;8881;-85
2020/12/23 03:05:52;;;;;;;;;0.00;0.00;;;;;;;;4981628;28;9031;-87
2020/12/23 03:08:18;;;;;;;;;0.00;0.00;;;;;;;;4967637;28;8897;-89
2020/12/23 03:10:45;;;;;;;;;0.00;0.00;;;;;;;;4972019;28;8869;-89
2020/12/23 03:13:12;;;;;;;;;0.00;0.00;;;;;;;;4965115;28;8871;-89
2020/12/23 03:15:40;;;;;;;;;0.00;0.00;;;;;;;;4970822;28;8883;-88
2020/12/23 03:18:06;;;;;;;;;0.25;0.00;;;;;;;;4965061;28;8859;-88
2020/12/23 03:20:33;;;;;;;;;0.00;0.00;;;;;;;;4967979;28;8882;-89
2020/12/23 03:23:00;;;;;;;;;0.00;0.00;;;;;;;;4983248;28;8901;-87
2020/12/23 03:25:27;;;;;;;;;0.00;0.00;;;;;;;;4962983;28;9930;-90
2020/12/23 03:27:54;;;;;;;;;0.00;0.00;;;;;;;;4967283;28;8918;-91
2020/12/23 03:30:21;;;;;;;;;0.00;0.00;;;;;;;;4969547;28;8873;-92
2020/12/23 03:32:48;;;;;;;;;0.00;0.00;;;;;;;;4967802;28;8885;-92
2020/12/23 03:35:15;;;;;;;;;0.00;0.00;;;;;;;;4966164;28;8913;-92
2020/12/23 03:37:42;;;;;;;;;0.00;0.00;;;;;;;;4969190;28;8867;-90
2020/12/23 03:40:09;;;;;;;;;0.00;0.00;;;;;;;;4968944;28;8866;-91
2020/12/23 03:42:36;;;;;;;;;0.00;0.00;;;;;;;;4966265;28;8868;-91
2020/12/23 03:45:03;;;;;;;;;0.00;0.00;;;;;;;;4968101;28;8887;-90
2020/12/23 03:47:30;;;;;;;;;0.00;0.00;;;;;;;;4963695;28;8867;-91
2020/12/23 03:49:58;;;;;;;;;0.00;0.00;;;;;;;;4966528;28;8902;-85
2020/12/23 03:52:24;;;;;;;;;0.00;0.00;;;;;;;;4966420;28;8868;-92
2020/12/23 03:54:51;;;;;;;;;0.00;0.00;;;;;;;;4969240;28;8861;-92
2020/12/23 03:57:18;;;;;;;;;0.00;0.00;;;;;;;;4953862;28;8943;-90
2020/12/23 03:59:45;;;;;;;;;0.00;0.00;;;;;;;;4962671;28;9614;-92
2020/12/23 04:02:12;;;;;;;;;0.00;0.00;;;;;;;;4961949;28;9598;-93
2020/12/23 04:04:39;;;;;;;;;1.00;1.00;;;;;;;;4964938;28;8891;-91
2020/12/23 04:07:07;;;;;;;;;1.00;1.00;;;;;;;;4968453;28;8856;-93
2020/12/23 04:09:33;;;;;;;;;0.75;0.75;;;;;;;;4967463;28;8886;-93
2020/12/23 04:12:00;;;;;;;;;1.00;1.00;;;;;;;;4966342;28;9825;-87
2020/12/23 04:14:27;;;;;;;;;1.25;1.25;;;;;;;;4971182;28;8885;-90
2020/12/23 04:16:54;;;;;;;;;1.00;1.00;;;;;;;;4966042;28;8942;-93
2020/12/23 04:19:21;;;;;;;;;1.50;1.50;;;;;;;;4967507;28;8871;-90
2020/12/23 04:21:48;;;;;;;;;2.00;2.00;;;;;;;;4962195;28;8870;-93
2020/12/23 04:24:15;;;;;;;;;3.00;3.00;;;;;;;;4950961;28;8913;-90
2020/12/23 04:26:42;;;;;;;;;5.75;5.75;;;;;;;;4965765;28;8859;-87
2020/12/23 04:29:09;;;;;;;;;4.25;4.25;;;;;;;;4966920;28;8876;-87
2020/12/23 04:31:36;;;;;;;;;3.25;3.25;;;;;;;;4962307;28;8852;-91
2020/12/23 04:34:03;;;;;;;;;3.00;3.00;;;;;;;;4964537;28;8885;-91
2020/12/23 04:36:30;;;;;;;;;5.25;4.75;;;;;;;;4949102;28;8856;-92
2020/12/23 04:38:57;;;;;;;;;6.50;4.50;;;;;;;;4965784;28;8883;-93
2020/12/23 04:41:27;;;;;;;;;9.50;8.25;;;;;;;;4952638;28;8851;-91
2020/12/23 04:43:54;;;;;;;;;7.50;6.25;;;;;;;;4966459;28;8997;-93
2020/12/23 04:46:26;;;;;;;;;6.50;6.25;;;;;;;;4964783;28;8918;-88
2020/12/23 04:48:57;;;;;;;;;8.75;8.25;;;;;;;;4969595;28;8907;-96
2020/12/23 04:51:29;;;;;;;;;6.50;6.50;;;;;;;;4965204;28;8867;-94
2020/12/23 04:53:57;;;;;;;;;8.50;8.50;;;;;;;;4966232;28;8997;-95
2020/12/23 04:56:25;;;;;;;;;8.00;8.00;;;;;;;;4965440;28;8921;-95
2020/12/23 04:58:52;;;;;;;;;9.00;9.00;;;;;;;;4967800;28;8879;-95
2020/12/23 05:01:19;;;;;;;;;9.00;9.00;;;;;;;;4949834;28;8840;-95
2020/12/23 05:03:46;;;;;;;;;10.25;6.75;;;;;;;;4968959;28;8865;-94
2020/12/23 05:06:14;;;;;;;;;11.00;11.00;;;;;;;;4968891;28;8887;-92
2020/12/23 05:08:40;;;;;;;;;9.00;8.75;;;;;;;;4972580;28;8871;-93
2020/12/23 05:11:08;;;;;;;;;15.00;12.25;;;;;;;;4966517;28;8918;-83
2020/12/23 05:13:36;;;;;;;;;9.50;9.25;;;;;;;;4973522;28;8888;-93
2020/12/23 05:16:06;;;;;;;;;12.00;12.00;;;;;;;;4984039;28;8863;-87
2020/12/23 05:18:41;;;;;;;;;10.25;10.00;;;;;;;;4993414;28;8885;-86
2020/12/23 05:21:15;;;;;;;;;12.50;10.00;;;;;;;;4989642;28;8970;-90
2020/12/23 05:23:43;;;;;;;;;13.75;11.25;;;;;;;;4989478;28;8863;-92
2020/12/23 05:26:10;;;;;;;;;11.50;10.00;;;;;;;;4992368;28;9021;-78
2020/12/23 05:28:39;;;;;;;;;11.25;10.75;;;;;;;;4974976;28;8871;-87
2020/12/23 05:31:07;;;;;;;;;11.00;11.00;;;;;;;;4968179;28;8836;-92
2020/12/23 05:33:35;;;;;;;;;11.50;10.00;;;;;;;;4970089;28;8867;-83
2020/12/23 05:36:03;;;;;;;;;10.00;8.25;;;;;;;;4968930;28;8915;-91
2020/12/23 05:38:31;;;;;;;;;8.75;8.75;;;;;;;;4970143;28;8855;-94
2020/12/23 05:41:00;;;;;;;;;8.75;8.75;;;;;;;;4976375;28;8900;-87
2020/12/23 05:43:27;;;;;;;;;11.75;11.75;;;;;;;;4968896;28;8875;-91
2020/12/23 05:45:55;;;;;;;;;11.00;11.00;;;;;;;;4966389;28;8879;-91
2020/12/23 05:48:22;;;;;;;;;10.50;10.50;;;;;;;;4970287;28;8883;-90
2020/12/23 05:50:50;;;;;;;;;11.00;10.75;;;;;;;;4968380;28;8879;-92
2020/12/23 05:53:17;;;;;;;;;8.00;8.00;;;;;;;;4967634;28;8889;-92
2020/12/23 05:55:45;;;;;;;;;10.75;10.75;;;;;;;;4971370;28;8903;-90
2020/12/23 05:58:21;;;;;;;;;11.25;11.25;;;;;;;;4968116;28;8871;-91
2020/12/23 06:00:49;;;;;;;;;12.75;11.00;;;;;;;;4970113;28;8807;-91
2020/12/23 06:03:22;;;;;;;;;8.50;5.75;;;;;;;;4965012;28;8887;-80
2020/12/23 06:05:58;;;;;;;;;14.25;12.00;;;;;;;;4952170;28;8879;-91
2020/12/23 06:08:31;;;;;;;;;8.50;6.75;;;;;;;;4968419;28;8851;-84
2020/12/23 06:11:18;;;;;;;;;16.25;12.75;;;;;;;;4982333;28;8865;-86
2020/12/23 06:14:13;;;;;;;;;12.25;10.00;;;;;;;;4969976;28;8879;-86
2020/12/23 06:16:42;;;;;;;;;12.75;12.75;;;;;;;;4985605;28;8877;-81
2020/12/23 06:19:10;;;;;;;;;11.00;11.00;;;;;;;;4981771;28;8865;-87
2020/12/23 06:21:39;;;;;;;;;12.25;11.25;;;;;;;;4977752;28;8912;-87
2020/12/23 06:24:07;;;;;;;;;11.25;10.25;;;;;;;;4982038;28;8992;-88
2020/12/23 06:26:36;;;;;;;;;14.25;13.00;;;;;;;;4984253;28;8919;-83
2020/12/23 06:29:05;;;;;;;;;12.00;12.00;;;;;;;;4985572;28;8938;-80
2020/12/23 06:31:40;;;;;;;;;10.75;10.75;;;;;;;;4978267;28;9685;-84
2020/12/23 06:34:07;;;;;;;;;14.50;10.25;;;;;;;;4973007;28;8875;-82
2020/12/23 06:36:35;;;;;;;;;12.00;11.00;;;;;;;;4982941;28;8855;-83
2020/12/23 06:39:30;;;;;;;;;10.00;10.00;;;;;;;;4968709;28;8847;-84
2020/12/23 06:42:35;;;;;;;;;10.25;9.00;;;;;;;;4984662;28;8896;-85
2020/12/23 06:45:10;;;;;;;;;8.00;8.00;;;;;;;;4985172;28;8881;-82
2020/12/23 06:47:38;;;;;;;;;11.50;10.75;;;;;;;;4985013;28;8881;-84
2020/12/23 06:50:13;;;;;;;;;12.25;10.75;;;;;;;;4985190;28;8885;-78
2020/12/23 06:52:45;;;;;;;;;11.25;11.25;;;;;;;;4985464;28;9615;-83
2020/12/23 06:55:13;;;;;;;;;10.00;10.00;;;;;;;;4962685;28;8875;-81
2020/12/23 06:58:01;;;;;;;;;11.75;11.75;;;;;;;;4980665;28;8888;-82
2020/12/23 07:00:41;;;;;;;;;10.50;10.00;;;;;;;;4976589;28;8876;-80
2020/12/23 07:03:09;;;;;;;;;9.00;9.00;;;;;;;;4976776;28;8951;-82
2020/12/23 07:05:44;;;;;;;;;11.25;11.25;;;;;;;;4986122;28;8853;-80
2020/12/23 07:08:14;;;;;;;;;12.50;12.50;;;;;;;;4966094;28;8883;-82
2020/12/23 07:10:44;;;;;;;;;19.25;14.75;;;;;;;;4964256;28;8859;-83
2020/12/23 07:13:13;;;;;;;;;10.75;10.75;;;;;;;;4979923;28;8892;-83
2020/12/23 07:15:41;;;;;;;;;10.25;10.25;;;;;;;;4968979;28;8867;-88
2020/12/23 07:18:10;;;;;;;;;12.75;12.00;;;;;;;;4969128;28;9698;-74
2020/12/23 07:20:40;;;;;;;;;13.00;13.00;;;;;;;;4963311;28;8898;-73
2020/12/23 07:23:09;;;;;;;;;7.75;7.75;;;;;;;;4978984;28;8869;-73
2020/12/23 07:25:40;;;;;;;;;10.75;9.75;;;;;;;;4976195;28;8989;-73
2020/12/23 07:28:09;;;;;;;;;10.00;10.00;;;;;;;;4965231;28;8871;-73
2020/12/23 07:30:38;;;;;;;;;11.25;11.25;;;;;;;;4962931;28;8880;-73
2020/12/23 07:33:12;;;;;;;;;9.00;9.00;;;;;;;;4968695;28;8881;-73
2020/12/23 07:35:40;;;;;;;;;10.00;10.00;;;;;;;;4982226;28;8946;-73
2020/12/23 07:38:08;;;;;;;;;11.00;11.00;;;;;;;;4983199;28;8869;-73
2020/12/23 07:40:36;;;;;;;;;9.75;9.75;;;;;;;;4965644;28;8927;-73
2020/12/23 07:43:04;;;;;;;;;9.75;8.00;;;;;;;;4976406;28;8867;-73
2020/12/23 07:45:31;;;;;;;;;11.00;9.50;;;;;;;;4965511;28;8875;-72
2020/12/23 07:48:00;;;;;;;;;8.00;8.00;;;;;;;;4978985;28;8973;-72
2020/12/23 07:50:29;;;;;;;;;5.00;5.00;;;;;;;;4973306;28;8893;-73
2020/12/23 07:52:56;;;;;;;;;6.00;6.00;;;;;;;;4983400;28;8873;-73
2020/12/23 07:55:25;;;;;;;;;9.75;8.00;;;;;;;;4965819;28;8879;-71
2020/12/23 07:57:53;;;;;;;;;8.75;8.75;;;;;;;;4964453;28;8867;-73
2020/12/23 08:00:21;;;;;;;;;9.25;9.25;;;;;;;;4975989;28;8923;-71
2020/12/23 08:02:48;;;;;;;;;9.00;9.00;;;;;;;;4967184;28;8869;-72
2020/12/23 08:05:15;;;;;;;;;9.50;8.00;;;;;;;;4972777;28;9357;-73
2020/12/23 08:07:43;;;;;;;;;11.50;11.50;;;;;;;;4968525;28;8886;-71
2020/12/23 08:10:12;;;;;;;;;8.75;8.75;;;;;;;;4971117;28;8853;-73
2020/12/23 08:12:41;;;;;;;;;6.25;6.25;;;;;;;;4978005;28;9838;-73
2020/12/23 08:15:15;;;;;;;;;3.00;3.00;;;;;;;;4969989;28;8869;-73
2020/12/23 08:17:42;;;;;;;;;4.25;4.25;;;;;;;;4963418;28;8875;-73
2020/12/23 08:20:12;;;;;;;;;3.25;3.25;;;;;;;;4976455;28;8982;-73
2020/12/23 08:22:41;;;;;;;;;4.25;3.00;;;;;;;;4982732;28;9634;-73
2020/12/23 08:25:10;;;;;;;;;4.25;4.25;;;;;;;;4971554;28;8874;-73
2020/12/23 08:27:38;;;;;;;;;3.00;3.00;;;;;;;;4980194;28;8935;-72
2020/12/23 08:30:07;;;;;;;;;5.00;3.25;;;;;;;;4963651;28;8999;-71
2020/12/23 08:32:43;;;;;;;;;2.25;2.25;;;;;;;;4965456;28;9625;-74
2020/12/23 08:35:11;;;;;;;;;3.50;3.50;;;;;;;;4961623;28;8884;-73
2020/12/23 08:37:38;;;;;;;;;3.25;3.25;;;;;;;;4976651;28;8958;-74
2020/12/23 08:40:07;;;;;;;;;5.50;5.50;;;;;;;;4976735;28;8877;-74
2020/12/23 08:42:34;;;;;;;;;5.00;3.00;;;;;;;;4983771;28;8861;-74
2020/12/23 08:45:01;;;;;;;;;2.25;2.25;;;;;;;;4982876;28;8849;-72
2020/12/23 08:47:31;;;;;;;;;2.50;2.50;;;;;;;;4984748;28;9615;-74
2020/12/23 08:50:01;;;;;;;;;4.00;4.00;;;;;;;;4987221;28;8892;-73
2020/12/23 08:52:29;;;;;;;;;3.25;3.25;;;;;;;;4984815;28;8872;-72
2020/12/23 08:54:56;;;;;;;;;5.00;2.75;;;;;;;;4987441;28;8928;-73
2020/12/23 08:57:27;;;;;;;;;5.00;5.00;;;;;;;;4984013;28;8884;-72
2020/12/23 08:59:55;;;;;;;;;5.75;5.75;;;;;;;;4986256;28;8924;-73
2020/12/23 09:02:22;;;;;;;;;5.00;4.00;;;;;;;;4983368;28;8825;-73
2020/12/23 09:04:49;;;;;;;;;6.75;4.50;;;;;;;;4985744;28;8861;-73
2020/12/23 09:07:23;;;;;;;;;4.00;4.00;;;;;;;;4969930;28;8943;-73
2020/12/23 09:09:50;;;;;;;;;3.75;3.75;;;;;;;;4978587;28;8856;-73
2020/12/23 09:12:23;;;;;;;;;6.25;4.00;;;;;;;;4980775;28;8873;-74
2020/12/23 09:14:50;;;;;;;;;4.00;4.00;;;;;;;;4986195;28;8865;-74
2020/12/23 09:17:22;;;;;;;;;1.75;1.75;;;;;;;;4985522;28;8871;-74
2020/12/23 09:19:54;;;;;;;;;2.50;2.50;;;;;;;;4982855;28;8859;-73
2020/12/23 09:22:30;;;;;;;;;2.25;2.25;;;;;;;;4979475;28;8860;-74
2020/12/23 09:25:13;;;;;;;;;4.50;3.00;;;;;;;;4969304;28;9654;-73
2020/12/23 09:27:39;;;;;;;;;4.00;2.25;;;;;;;;4969015;28;9743;-72
2020/12/23 09:30:07;;;;;;;;;1.75;1.75;;;;;;;;4977273;28;8853;-71
2020/12/23 09:32:34;;;;;;;;;3.00;3.00;;;;;;;;4985821;28;8865;-72
2020/12/23 09:35:16;;;;;;;;;2.00;2.00;;;;;;;;4977980;28;8899;-73
2020/12/23 09:37:44;;;;;;;;;3.75;3.75;;;;;;;;4973214;28;8836;-73
2020/12/23 09:40:11;;;;;;;;;4.50;4.50;;;;;;;;4974923;28;8861;-73
2020/12/23 09:42:39;;;;;;;;;2.75;2.75;;;;;;;;4985333;28;8873;-73
2020/12/23 09:45:06;;;;;;;;;6.25;6.00;;;;;;;;4977054;28;8889;-72
2020/12/23 09:47:33;;;;;;;;;9.75;9.75;;;;;;;;4976986;28;8865;-73
2020/12/23 09:50:02;;;;;;;;;6.00;6.00;;;;;;;;4983271;28;8865;-72
2020/12/23 09:52:29;;;;;;;;;6.25;6.25;;;;;;;;4981264;28;8883;-72
2020/12/23 09:54:57;;;;;;;;;8.25;8.25;;;;;;;;4978412;28;9020;-74
2020/12/23 09:57:23;;;;;;;;;7.00;7.00;;;;;;;;4962710;28;8877;-72
2020/12/23 09:59:50;;;;;;;;;6.75;6.75;;;;;;;;4978374;28;8848;-72
2020/12/23 10:02:17;;;;;;;;;9.00;6.25;;;;;;;;4977994;28;8916;-73
2020/12/23 10:04:43;;;;;;;;;7.00;7.00;;;;;;;;4984491;28;8904;-73
2020/12/23 10:07:10;;;;;;;;;5.75;5.75;;;;;;;;4985029;28;8878;-72
2020/12/23 10:09:37;;;;;;;;;7.50;7.50;;;;;;;;4979610;28;8850;-73
2020/12/23 10:12:04;;;;;;;;;9.50;5.25;;;;;;;;4983237;28;8858;-73
2020/12/23 10:14:31;;;;;;;;;8.00;8.00;;;;;;;;4964199;28;8947;-73
2020/12/23 10:16:58;;;;;;;;;8.25;8.25;;;;;;;;4982164;28;8859;-74
2020/12/23 10:19:24;;;;;;;;;9.00;9.00;;;;;;;;4974528;28;8975;-73
2020/12/23 10:21:51;;;;;;;;;5.00;5.00;;;;;;;;4984881;28;8955;-73
2020/12/23 10:24:18;;;;;;;;;7.50;7.50;;;;;;;;4979106;28;8882;-72
2020/12/23 10:26:48;;;;;;;;;6.75;6.75;;;;;;;;4982139;28;8883;-72
2020/12/23 10:29:15;;;;;;;;;7.25;7.25;;;;;;;;4984129;28;8833;-72
2020/12/23 10:31:42;;;;;;;;;8.75;7.00;;;;;;;;4968758;28;8827;-71
2020/12/23 10:34:09;;;;;;;;;6.00;6.00;;;;;;;;4979093;28;9372;-72
2020/12/23 10:36:36;;;;;;;;;5.00;5.00;;;;;;;;4967101;28;8867;-72
2020/12/23 10:39:03;;;;;;;;;6.75;6.75;;;;;;;;4972135;28;8857;-72
2020/12/23 10:41:30;;;;;;;;;6.25;4.00;;;;;;;;4973809;28;8859;-72
2020/12/23 10:43:57;;;;;;;;;7.25;5.00;;;;;;;;4980873;28;8877;-72
2020/12/23 10:46:24;;;;;;;;;5.00;5.00;;;;;;;;4980085;28;8880;-72
2020/12/23 10:48:51;;;;;;;;;4.50;4.50;;;;;;;;4982349;28;8877;-72
2020/12/23 10:51:19;;;;;;;;;3.50;3.50;;;;;;;;4982142;28;8864;-72
2020/12/23 10:53:45;;;;;;;;;8.50;8.50;;;;;;;;4947754;28;8913;-72
2020/12/23 10:56:12;;;;;;;;;8.75;8.75;;;;;;;;4972811;28;8862;-72
2020/12/23 10:58:39;;;;;;;;;9.25;5.00;;;;;;;;4983528;28;8875;-72
2020/12/23 11:01:06;;;;;;;;;5.75;5.75;;;;;;;;4984845;28;8805;-72
2020/12/23 11:03:35;;;;;;;;;5.75;5.75;;;;;;;;4982735;28;8869;-71
2020/12/23 11:06:03;;;;;;;;;7.25;7.25;;;;;;;;4984003;28;9483;-70
2020/12/23 11:08:29;;;;;;;;;8.25;8.25;;;;;;;;4980767;28;8955;-71
2020/12/23 11:10:56;;;;;;;;;5.75;5.00;;;;;;;;4980207;28;8875;-71
2020/12/23 11:13:23;;;;;;;;;6.00;6.00;;;;;;;;4983168;28;9663;-71
2020/12/23 11:15:49;;;;;;;;;8.00;8.00;;;;;;;;4976273;28;8897;-71
2020/12/23 11:18:16;;;;;;;;;8.50;8.00;;;;;;;;4971028;28;8894;-72
2020/12/23 11:20:44;;;;;;;;;11.25;10.25;;;;;;;;4981265;28;8859;-70
2020/12/23 11:23:10;;;;;;;;;9.75;9.75;;;;;;;;4980792;28;9470;-69
2020/12/23 11:25:37;;;;;;;;;9.75;9.75;;;;;;;;4969750;28;8853;-72
2020/12/23 11:28:03;;;;;;;;;8.25;7.00;;;;;;;;4969074;28;9705;-72
2020/12/23 11:30:30;;;;;;;;;9.50;9.50;;;;;;;;4973498;28;8805;-72
2020/12/23 11:32:57;;;;;;;;;9.75;9.75;;;;;;;;4977974;28;8880;-73
2020/12/23 11:35:23;;;;;;;;;7.00;7.00;;;;;;;;4976087;28;8869;-71
2020/12/23 11:37:51;;;;;;;;;14.75;11.00;;;;;;;;4966787;28;8878;-71
2020/12/23 11:40:17;;;;;;;;;12.00;10.25;;;;;;;;4981764;28;8888;-71
2020/12/23 11:42:44;;;;;;;;;9.00;9.00;;;;;;;;4968876;28;8861;-71
2020/12/23 11:45:11;;;;;;;;;10.00;8.00;;;;;;;;4981537;28;8919;-71
2020/12/23 11:47:38;;;;;;;;;7.50;7.50;;;;;;;;4978896;28;8887;-71
2020/12/23 11:50:05;;;;;;;;;7.00;7.00;;;;;;;;4983547;28;8886;-72
2020/12/23 11:52:32;;;;;;;;;5.75;5.25;;;;;;;;4975803;28;8865;-71
2020/12/23 11:55:00;;;;;;;;;6.25;6.25;;;;;;;;4981827;28;8886;-71
2020/12/23 11:57:26;;;;;;;;;8.50;8.00;;;;;;;;4976881;28;8924;-71
2020/12/23 11:59:53;;;;;;;;;9.00;9.00;;;;;;;;4966182;28;8871;-71
2020/12/23 12:02:19;;;;;;;;;8.00;8.00;;;;;;;;4973962;28;8845;-72
2020/12/23 12:04:46;;;;;;;;;8.75;8.75;;;;;;;;4969485;28;8902;-70
2020/12/23 12:07:13;;;;;;;;;9.75;9.75;;;;;;;;4974750;28;8891;-71
2020/12/23 12:09:39;;;;;;;;;11.00;11.00;;;;;;;;4976075;28;8877;-70
2020/12/23 12:12:07;;;;;;;;;17.25;10.25;;;;;;;;4974729;28;8877;-72
2020/12/23 12:14:34;;;;;;;;;8.50;8.50;;;;;;;;4973175;28;8897;-71
2020/12/23 12:17:00;;;;;;;;;8.75;8.50;;;;;;;;4975798;28;8871;-71
2020/12/23 12:19:27;;;;;;;;;9.75;9.25;;;;;;;;4971466;28;8893;-77
2020/12/23 12:21:55;;;;;;;;;8.50;8.50;;;;;;;;4983512;28;8877;-70
2020/12/23 12:24:21;;;;;;;;;8.50;8.50;;;;;;;;4986793;28;8901;-72
2020/12/23 12:26:48;;;;;;;;;8.75;8.75;;;;;;;;4984174;28;8865;-71
2020/12/23 12:29:16;;;;;;;;;5.00;4.00;;;;;;;;4975728;28;8893;-73
2020/12/23 12:31:45;;;;;;;;;10.50;6.50;;;;;;;;4975834;28;8831;-72
2020/12/23 12:34:12;;;;;;;;;9.50;9.00;;;;;;;;4972055;28;9006;-71
2020/12/23 12:36:38;;;;;;;;;6.25;4.50;;;;;;;;4968539;28;8877;-70
2020/12/23 12:39:05;;;;;;;;;6.50;6.00;;;;;;;;4971423;28;8890;-71
2020/12/23 12:41:32;;;;;;;;;8.00;6.25;;;;;;;;4986003;28;8896;-71
2020/12/23 12:43:59;;;;;;;;;7.50;7.50;;;;;;;;4982627;28;8947;-71
2020/12/23 12:46:28;;;;;;;;;8.25;8.25;;;;;;;;4971254;28;8875;-70
2020/12/23 12:48:54;;;;;;;;;8.25;5.50;;;;;;;;4961592;28;8851;-71
2020/12/23 12:51:25;;;;;;;;;5.50;4.75;;;;;;;;4967314;28;8867;-71
2020/12/23 12:53:52;;;;;;;;;6.25;6.25;;;;;;;;4970673;28;8949;-72
2020/12/23 12:56:22;;;;;;;;;5.00;5.00;;;;;;;;4975646;28;8868;-70
2020/12/23 12:58:49;;;;;;;;;6.00;6.00;;;;;;;;4972746;28;8855;-72
2020/12/23 13:01:16;;;;;;;;;5.75;4.00;;;;;;;;4974182;28;8849;-71
2020/12/23 13:03:43;;;;;;;;;3.25;3.25;;;;;;;;4977425;28;8859;-71
2020/12/23 13:06:10;;;;;;;;;5.25;5.25;;;;;;;;4983771;28;8868;-71
2020/12/23 13:08:37;;;;;;;;;2.00;2.00;;;;;;;;4973319;28;8857;-70
2020/12/23 13:11:04;;;;;;;;;4.50;4.50;;;;;;;;4967958;28;8849;-71
2020/12/23 13:13:31;;;;;;;;;4.00;4.00;;;;;;;;4979388;28;8873;-72
2020/12/23 13:15:58;;;;;;;;;5.50;4.00;;;;;;;;4980969;28;8875;-71
2020/12/23 13:18:25;;;;;;;;;4.00;4.00;;;;;;;;4955317;28;8893;-71
2020/12/23 13:20:53;;;;;;;;;4.75;4.75;;;;;;;;4954921;28;8890;-71
2020/12/23 13:23:20;;;;;;;;;4.75;4.00;;;;;;;;4955370;28;8876;-72
2020/12/23 13:25:47;;;;;;;;;5.00;5.00;;;;;;;;4952282;28;8869;-71
2020/12/23 13:28:13;;;;;;;;;3.50;3.50;;;;;;;;4961236;28;8871;-72
2020/12/23 13:30:40;;;;;;;;;3.25;3.25;;;;;;;;4952998;28;8821;-71
2020/12/23 13:33:07;;;;;;;;;4.00;4.00;;;;;;;;4953268;28;8877;-70
2020/12/23 13:35:34;;;;;;;;;4.50;4.50;;;;;;;;4960177;28;8861;-70
2020/12/23 13:38:01;;;;;;;;;4.50;4.50;;;;;;;;4962192;28;8901;-71
2020/12/23 13:40:28;;;;;;;;;4.00;4.00;;;;;;;;4955858;28;8885;-70
2020/12/23 13:42:56;;;;;;;;;3.00;3.00;;;;;;;;4955882;28;9620;-71
2020/12/23 13:45:23;;;;;;;;;3.00;3.00;;;;;;;;4953317;28;8885;-72
2020/12/23 13:47:49;;;;;;;;;5.75;5.00;;;;;;;;4966609;28;8913;-69
2020/12/23 13:50:16;;;;;;;;;4.50;4.50;;;;;;;;4965097;28;8883;-69
2020/12/23 13:52:43;;;;;;;;;2.00;2.00;;;;;;;;4962078;28;8883;-69
2020/12/23 13:55:11;;;;;;;;;6.25;4.25;;;;;;;;4957226;28;8923;-69
2020/12/23 13:57:37;;;;;;;;;4.00;4.00;;;;;;;;4954958;28;8882;-69
2020/12/23 14:00:06;;;;;;;;;6.00;4.25;;;;;;;;4947676;28;8873;-70
2020/12/23 14:02:34;;;;;;;;;3.00;3.00;;;;;;;;4949971;28;8869;-72
2020/12/23 14:05:00;;;;;;;;;4.00;3.75;;;;;;;;4950100;28;8866;-70
2020/12/23 14:07:27;;;;;;;;;3.00;3.00;;;;;;;;4956825;28;8879;-70
2020/12/23 14:09:54;;;;;;;;;6.00;3.00;;;;;;;;4954523;28;8849;-69
2020/12/23 14:12:22;;;;;;;;;4.00;4.00;;;;;;;;4952409;28;8910;-70
2020/12/23 14:14:48;;;;;;;;;3.50;3.50;;;;;;;;4956630;28;8900;-70
2020/12/23 14:17:15;;;;;;;;;4.00;3.25;;;;;;;;4953222;28;8838;-70
2020/12/23 14:19:42;;;;;;;;;7.75;6.00;;;;;;;;4956522;28;8845;-73
2020/12/23 14:22:08;;;;;;;;;7.25;4.00;;;;;;;;4956192;28;8902;-72
2020/12/23 14:24:35;;;;;;;;;3.50;3.50;;;;;;;;4951582;28;8927;-72
2020/12/23 14:27:02;;;;;;;;;3.00;3.00;;;;;;;;4964392;28;8894;-71
2020/12/23 14:29:30;;;;;;;;;6.00;3.00;;;;;;;;4959662;28;8917;-71
2020/12/23 14:31:56;;;;;;;;;3.50;3.50;;;;;;;;4956950;28;8857;-72
2020/12/23 14:34:23;;;;;;;;;3.00;3.00;;;;;;;;4947813;28;8889;-70
2020/12/23 14:36:50;;;;;;;;;4.00;2.50;;;;;;;;4965745;28;8879;-71
2020/12/23 14:39:17;;;;;;;;;2.25;2.25;;;;;;;;4956293;28;8893;-71
2020/12/23 14:41:43;;;;;;;;;3.00;3.00;;;;;;;;4965393;28;8867;-71
2020/12/23 14:44:12;;;;;;;;;3.25;3.25;;;;;;;;4965344;28;8922;-71
2020/12/23 14:46:40;;;;;;;;;2.25;2.25;;;;;;;;4954555;28;8871;-70
2020/12/23 14:49:06;;;;;;;;;2.00;2.00;;;;;;;;4964881;28;8867;-72
2020/12/23 14:51:33;;;;;;;;;4.00;3.00;;;;;;;;4952110;28;9276;-71
2020/12/23 14:54:00;;;;;;;;;2.00;2.00;;;;;;;;4965905;28;8979;-71
2020/12/23 14:56:27;;;;;;;;;3.50;3.00;;;;;;;;4958248;28;9021;-71
2020/12/23 14:58:54;;;;;;;;;1.00;1.00;;;;;;;;4958932;28;8863;-72